Merry Point, Virginia
Current Conditions -  °F | °C
As of 2:15 AM on Thursday 18 Dec 2014 (Local Time) from KW75 Reporting Station
Clear Clear  
Wind Chill: 34°   Ceiling: Unl
Heat Index: 38°   Visibility: 10mi
Dew Point: 27°   Wind: 5mph
Humidity: 65%   Direction: 330°NNW
Pressure: 30.08"   Gusts: NA
Location:  37.73°N, 76.48°W
Report Text: KW75 180715Z AUTO 33004KT 10SM CLR 03/M03 A3008 RMK AO1 T00321028
Loading
Personal Weather Stations






























Interactive Weather Map New forecast layout! Learn more

10-Day Weather Forecast

Advertisements
Track Severe Weather on mobile